Home > Products > Valid Products > TAF

000
FTUS44 KMEG 302056 AAA
TAFMEM
TAF AMD
KMEM 302056Z 3021/3118 17007KT P6SM VCTS SCT040CB SCT100
     FM310100 12006KT P6SM SCT100 SCT250
     FM311600 14006KT P6SM SCT030 SCT250=



000
FTUS44 KMEG 301735
TAFTUP
TAF
KTUP 301735Z 3018/3118 15007KT P6SM SCT025 SCT250
      TEMPO 3018/3019 BKN025 OVC250
     FM301900 14007KT P6SM VCTS SCT050CB SCT250
     FM310100 12003KT P6SM SCT100 SCT250
     FM311600 09005KT P6SM SCT030 SCT250=



000
FTUS44 KMEG 301735
TAFMEM
TAF
KMEM 301735Z 3018/3118 14007KT P6SM SCT040 SCT100
     FM310100 12006KT P6SM SCT100 SCT250
     FM311600 14006KT P6SM SCT030 SCT250=



000
FTUS44 KMEG 301735
TAFMKL
TAF
KMKL 301735Z 3018/3118 15005KT P6SM VCTS SCT050CB SCT100
     FM310100 13003KT P6SM SCT100 SCT250
      TEMPO 3109/3112 4SM BR
     FM311600 13003KT P6SM SCT030 SCT250=



000
FTUS44 KMEG 301735
TAFJBR
TAF
KJBR 301735Z 3018/3118 16008KT P6SM SCT040 SCT100
     FM310100 12004KT P6SM SCT100 SCT250
     FM311600 16006KT P6SM SCT030 SCT250=



000
FTUS44 KMEG 301735
TAFTUP
TAF
KTUP 301735Z 3018/3118 15007KT P6SM SCT025 SCT250
      TEMPO 3018/3019 BKN025 OVC250
     FM301900 14007KT P6SM VCTS SCT050CB SCT250
     FM310100 12003KT P6SM SCT100 SCT250
     FM311600 09005KT P6SM SCT030 SCT250=



000
FTUS44 KMEG 301735
TAFMEM
TAF
KMEM 301735Z 3018/3118 14007KT P6SM SCT040 SCT100
     FM310100 12006KT P6SM SCT100 SCT250
     FM311600 14006KT P6SM SCT030 SCT250=



000
FTUS44 KMEG 301735
TAFMKL
TAF
KMKL 301735Z 3018/3118 15005KT P6SM VCTS SCT050CB SCT100
     FM310100 13003KT P6SM SCT100 SCT250
      TEMPO 3109/3112 4SM BR
     FM311600 13003KT P6SM SCT030 SCT250=



000
FTUS44 KMEG 301735
TAFJBR
TAF
KJBR 301735Z 3018/3118 16008KT P6SM SCT040 SCT100
     FM310100 12004KT P6SM SCT100 SCT250
     FM311600 16006KT P6SM SCT030 SCT250=



000
FTUS44 KMEG 301713 AAB
TAFTUP
TAF AMD
KTUP 301713Z 3017/3112 17005KT P6SM SCT025
      TEMPO 3017/3019 BKN025
     FM301900 18006KT P6SM SCT040
     FM310100 15006KT P6SM BKN200=



000
FTUS44 KMEG 301503 AAA
TAFMEM
TAF AMD
KMEM 301503Z 3015/3112 14006KT P6SM VCSH SCT040 BKN100
     FM301800 15007KT P6SM SCT040 SCT100
     FM310100 15006KT P6SM BKN200=



000
FTUS44 KMEG 301229 AAA
TAFTUP
TAF AMD
KTUP 301229Z 3012/3112 17005KT P6SM FEW025
     FM301600 18006KT P6SM SCT040
     FM310100 15006KT P6SM BKN200=



000
FTUS44 KMEG 301229 AAA
TAFTUP
TAF AMD
KTUP 301229Z 3012/3112 17005KT P6SM FEW025
     FM301600 18006KT P6SM SCT040
     FM310100 15006KT P6SM BKN200=



000
FTUS44 KMEG 301120
TAFMKL
TAF
KMKL 301120Z 3012/3112 VRB05KT P6SM SKC
     FM301500 18006KT P6SM SCT040
     FM301800 17007KT P6SM VCSH BKN050
     FM310100 16004KT P6SM BKN200=



000
FTUS44 KMEG 301120
TAFMEM
TAF
KMEM 301120Z 3012/3112 10004KT P6SM VCTS SCT022CB OVC130
     FM301400 19007KT P6SM SCT040
     FM310100 15006KT P6SM BKN200=



000
FTUS44 KMEG 301120
TAFMEM
TAF
KMEM 301120Z 3012/3112 10004KT P6SM VCTS SCT022CB OVC130
     FM301400 19007KT P6SM SCT040
     FM310100 15006KT P6SM BKN200=



000
FTUS44 KMEG 301120
TAFJBR
TAF
KJBR 301120Z 3012/3112 07003KT P6SM SKC
     FM301600 19008KT P6SM SCT040
     FM310100 15005KT P6SM BKN200=



000
FTUS44 KMEG 301120
TAFMKL
TAF
KMKL 301120Z 3012/3112 VRB05KT P6SM SKC
     FM301500 18006KT P6SM SCT040
     FM301800 17007KT P6SM VCSH BKN050
     FM310100 16004KT P6SM BKN200=



000
FTUS44 KMEG 301120
TAFTUP
TAF
KTUP 301120Z 3012/3112 17006KT P6SM BKN010
      TEMPO 3012/3013 4SM BR BKN005
     FM301600 18006KT P6SM SCT040
     FM310100 15006KT P6SM BKN200=



000
FTUS44 KMEG 301120
TAFJBR
TAF
KJBR 301120Z 3012/3112 07003KT P6SM SKC
     FM301600 19008KT P6SM SCT040
     FM310100 15005KT P6SM BKN200=



000
FTUS44 KMEG 301120
TAFTUP
TAF
KTUP 301120Z 3012/3112 17006KT P6SM BKN010
      TEMPO 3012/3013 4SM BR BKN005
     FM301600 18006KT P6SM SCT040
     FM310100 15006KT P6SM BKN200=



000
FTUS44 KMEG 300945 AAB
TAFMEM
TAF AMD
KMEM 300945Z 3010/3106 15005KT P6SM VCTS BKN060CB OVC170
     FM301600 19007KT P6SM SCT040
     FM310100 15006KT P6SM BKN200=



000
FTUS44 KMEG 300851 AAA
TAFMEM
TAF AMD
KMEM 300851Z 3009/3106 15005KT P6SM BKN060 OVC170
     FM301600 19007KT P6SM SCT040
     FM310100 15006KT P6SM BKN200=



000
FTUS44 KMEG 300521
TAFTUP
TAF
KTUP 300521Z 3006/3106 16005KT P6SM FEW100 SCT150
      TEMPO 3010/3013 4SM BR BKN015
     FM301600 18006KT P6SM SCT040
     FM310100 15006KT P6SM BKN200=



000
FTUS44 KMEG 300521
TAFMEM
TAF
KMEM 300521Z 3006/3106 16005KT P6SM FEW100 SCT150
     FM301600 19007KT P6SM SCT040
     FM310100 15006KT P6SM BKN200=



000
FTUS44 KMEG 300521
TAFJBR
TAF
KJBR 300521Z 3006/3106 18004KT P6SM FEW100 SCT150
     FM301600 19008KT P6SM SCT040
     FM310100 15005KT P6SM BKN200=



000
FTUS44 KMEG 300521
TAFMKL
TAF
KMKL 300521Z 3006/3106 16003KT P6SM FEW100 SCT150
     FM301600 18006KT P6SM SCT040
     FM301800 17007KT P6SM VCSH BKN050
     FM310100 16004KT P6SM BKN200=



000
FTUS44 KMEG 300250 AAA
TAFMEM
TAF AMD
KMEM 300250Z 3003/3024 16005KT P6SM FEW100 SCT150
     FM301600 19007KT P6SM SCT040=



000
FTUS44 KMEG 292332
TAFTUP
TAF
KTUP 292332Z 3000/3024 17007KT P6SM SCT040 SCT090
     FM300100 16004KT P6SM FEW100 SCT150
     FM301600 18006KT P6SM SCT040=



000
FTUS44 KMEG 292332
TAFMKL
TAF
KMKL 292332Z 3000/3024 16003KT P6SM FEW100 SCT150
     FM301600 18006KT P6SM SCT040=



000
FTUS44 KMEG 292332
TAFMEM
TAF
KMEM 292332Z 3000/3024 21005KT P6SM SCT060 SCT250
     FM300100 16005KT P6SM FEW100 SCT150
     FM301600 19007KT P6SM SCT040=



000
FTUS44 KMEG 292332
TAFJBR
TAF
KJBR 292332Z 3000/3024 18004KT P6SM FEW100 SCT150
     FM301600 19008KT P6SM SCT040=



000
FTUS44 KMEG 292332
TAFTUP
TAF
KTUP 292332Z 3000/3024 17007KT P6SM SCT040 SCT090
     FM300100 16004KT P6SM FEW100 SCT150
     FM301600 18006KT P6SM SCT040=



000
FTUS44 KMEG 292332
TAFMEM
TAF
KMEM 292332Z 3000/3024 21005KT P6SM SCT060 SCT250
     FM300100 16005KT P6SM FEW100 SCT150
     FM301600 19007KT P6SM SCT040=



000
FTUS44 KMEG 292332
TAFJBR
TAF
KJBR 292332Z 3000/3024 18004KT P6SM FEW100 SCT150
     FM301600 19008KT P6SM SCT040=



000
FTUS44 KMEG 292332
TAFMKL
TAF
KMKL 292332Z 3000/3024 16003KT P6SM FEW100 SCT150
     FM301600 18006KT P6SM SCT040=



000
FTUS44 KMEG 292045 AAA
TAFMEM
TAF AMD
KMEM 292045Z 2921/3018 21008KT P6SM SCT060 SCT250
     FM300100 16005KT P6SM FEW100 SCT150
     FM301600 19007KT P6SM SCT040=



000
FTUS44 KMEG 291728
TAFMEM
TAF
KMEM 291728Z 2918/3018 19007KT P6SM SCT050 SCT250
     FM300100 16005KT P6SM FEW100 SCT150
     FM301600 19007KT P6SM SCT040=



000
FTUS44 KMEG 291728
TAFJBR
TAF
KJBR 291728Z 2918/3018 21008KT P6SM FEW040 BKN250
     FM300100 18005KT P6SM FEW100 SCT150
     FM301600 19008KT P6SM SCT040=



000
FTUS44 KMEG 291728
TAFMKL
TAF
KMKL 291728Z 2918/3018 18007KT P6SM SCT040
     FM300100 16003KT P6SM FEW100 SCT150
     FM301600 18006KT P6SM SCT040=



000
FTUS44 KMEG 291728
TAFTUP
TAF
KTUP 291728Z 2918/3018 17007KT P6SM SCT040 SCT090
     FM300100 16004KT P6SM FEW100 SCT150
     FM301600 18006KT P6SM SCT040=



000
FTUS44 KMEG 291728
TAFTUP
TAF
KTUP 291728Z 2918/3018 17007KT P6SM SCT040 SCT090
     FM300100 16004KT P6SM FEW100 SCT150
     FM301600 18006KT P6SM SCT040=



000
FTUS44 KMEG 291728
TAFMKL
TAF
KMKL 291728Z 2918/3018 18007KT P6SM SCT040
     FM300100 16003KT P6SM FEW100 SCT150
     FM301600 18006KT P6SM SCT040=



000
FTUS44 KMEG 291728
TAFMEM
TAF
KMEM 291728Z 2918/3018 19007KT P6SM SCT050 SCT250
     FM300100 16005KT P6SM FEW100 SCT150
     FM301600 19007KT P6SM SCT040=



000
FTUS44 KMEG 291728
TAFJBR
TAF
KJBR 291728Z 2918/3018 21008KT P6SM FEW040 BKN250
     FM300100 18005KT P6SM FEW100 SCT150
     FM301600 19008KT P6SM SCT040=



000
FTUS44 KMEG 291533 AAC
TAFTUP
TAF AMD
KTUP 291533Z 2916/3012 22006KT P6SM BKN015
     FM291630 19008KT P6SM SCT030
     FM300100 16005KT P6SM SCT200=



000
FTUS44 KMEG 291533 AAC
TAFTUP
TAF AMD
KTUP 291533Z 2916/3012 22006KT P6SM BKN015
     FM291630 19008KT P6SM SCT030
     FM300100 16005KT P6SM SCT200=



000
FTUS44 KMEG 291514 AAA
TAFMEM
TAF AMD
KMEM 291514Z 2915/3012 16006KT P6SM FEW250
     FM291600 18009KT P6SM SCT040
     FM300100 16005KT P6SM SCT200=



000
FTUS44 KMEG 291428 AAB
TAFTUP
TAF AMD
KTUP 291428Z 2914/3012 19007KT P6SM SCT012
      TEMPO 2914/2915 BKN012
     FM291500 17003KT P6SM SCT025
     FM291600 18007KT P6SM SCT040
     FM300100 16005KT P6SM SCT200=



000
FTUS44 KMEG 291230 AAA
TAFTUP
TAF AMD
KTUP 291230Z 2913/3012 17003KT P6SM SCT015
      TEMPO 2913/2914 BKN015
     FM291400 17003KT P6SM SCT025
     FM291600 18007KT P6SM SCT040
     FM300100 16005KT P6SM SCT200=



000
FTUS44 KMEG 291120
TAFMEM
TAF
KMEM 291120Z 2912/3012 16006KT P6SM FEW250
     FM291600 18009KT P6SM SCT040
     FM300100 16005KT P6SM SCT200=



000
FTUS44 KMEG 291120
TAFJBR
TAF
KJBR 291120Z 2912/3012 00000KT P6SM SKC
     FM291600 18007KT P6SM SCT040
     FM300100 18005KT P6SM SCT200=



000
FTUS44 KMEG 291120
TAFTUP
TAF
KTUP 291120Z 2912/3012 17003KT P6SM SKC
     FM291600 18007KT P6SM SCT040
     FM300100 16005KT P6SM SCT200=



000
FTUS44 KMEG 291120
TAFMKL
TAF
KMKL 291120Z 2912/3012 18007KT P6SM SKC
     FM291600 17007KT P6SM SCT040
     FM300100 16005KT P6SM SCT200=



000
FTUS44 KMEG 291120
TAFMEM
TAF
KMEM 291120Z 2912/3012 16006KT P6SM FEW250
     FM291600 18009KT P6SM SCT040
     FM300100 16005KT P6SM SCT200=



000
FTUS44 KMEG 291120
TAFTUP
TAF
KTUP 291120Z 2912/3012 17003KT P6SM SKC
     FM291600 18007KT P6SM SCT040
     FM300100 16005KT P6SM SCT200=



000
FTUS44 KMEG 291120
TAFMKL
TAF
KMKL 291120Z 2912/3012 18007KT P6SM SKC
     FM291600 17007KT P6SM SCT040
     FM300100 16005KT P6SM SCT200=



000
FTUS44 KMEG 291120
TAFJBR
TAF
KJBR 291120Z 2912/3012 00000KT P6SM SKC
     FM291600 18007KT P6SM SCT040
     FM300100 18005KT P6SM SCT200=



000
FTUS44 KMEG 290901 AAA
TAFMKL
TAF AMD
KMKL 290901Z 2909/3006 18006KT P6SM SKC
      TEMPO 2909/2912 5SM BR
     FM291600 17007KT P6SM SCT040
     FM300100 16005KT P6SM SCT200=



000
FTUS44 KMEG 290901 AAA
TAFMKL
TAF AMD
KMKL 290901Z 2909/3006 18006KT P6SM SKC
      TEMPO 2909/2912 5SM BR
     FM291600 17007KT P6SM SCT040
     FM300100 16005KT P6SM SCT200=



000
FTUS44 KMEG 290850 AAA
TAFMEM
TAF AMD
KMEM 290850Z 2909/3006 13003KT P6SM FEW250
     FM291600 18007KT P6SM SCT040
     FM300100 16005KT P6SM SCT200=



000
FTUS44 KMEG 290520
TAFMEM
TAF
KMEM 290520Z 2906/3006 13003KT P6SM FEW250
     FM291600 18007KT P6SM SCT040
     FM300100 16005KT P6SM SCT200=



000
FTUS44 KMEG 290520
TAFTUP
TAF
KTUP 290520Z 2906/3006 15002KT P6SM SCT050
     FM291600 18007KT P6SM SCT040
     FM300100 16005KT P6SM SCT200=



000
FTUS44 KMEG 290520
TAFMKL
TAF
KMKL 290520Z 2906/3006 16002KT P6SM FEW250
     FM290800 00000KT 5SM BR FEW250
      TEMPO 2909/2912 2SM BR
     FM291600 17007KT P6SM SCT040
     FM300100 16005KT P6SM SCT200=



000
FTUS44 KMEG 290520
TAFJBR
TAF
KJBR 290520Z 2906/3006 16002KT P6SM FEW250
     FM291600 18007KT P6SM SCT040
     FM300100 18005KT P6SM SCT200=



000
FTUS44 KMEG 290520
TAFTUP
TAF
KTUP 290520Z 2906/3006 15002KT P6SM SCT050
     FM291600 18007KT P6SM SCT040
     FM300100 16005KT P6SM SCT200=



000
FTUS44 KMEG 290520
TAFMEM
TAF
KMEM 290520Z 2906/3006 13003KT P6SM FEW250
     FM291600 18007KT P6SM SCT040
     FM300100 16005KT P6SM SCT200=



000
FTUS44 KMEG 290520
TAFJBR
TAF
KJBR 290520Z 2906/3006 16002KT P6SM FEW250
     FM291600 18007KT P6SM SCT040
     FM300100 18005KT P6SM SCT200=



000
FTUS44 KMEG 290520
TAFMKL
TAF
KMKL 290520Z 2906/3006 16002KT P6SM FEW250
     FM290800 00000KT 5SM BR FEW250
      TEMPO 2909/2912 2SM BR
     FM291600 17007KT P6SM SCT040
     FM300100 16005KT P6SM SCT200=



000
FTUS44 KMEG 290250 AAA
TAFMEM
TAF AMD
KMEM 290250Z 2903/2924 13005KT P6SM FEW250
     FM291600 18007KT P6SM SCT040=



000
FTUS44 KMEG 282322
TAFTUP
TAF
KTUP 282322Z 2900/2924 15003KT P6SM SCT050
     FM291600 18007KT P6SM SCT040=



000
FTUS44 KMEG 282322
TAFMKL
TAF
KMKL 282322Z 2900/2924 16003KT P6SM FEW250
     FM290800 00000KT 5SM BR FEW250
      TEMPO 2909/2912 2SM BR
     FM291600 17007KT P6SM SCT040=



000
FTUS44 KMEG 282322
TAFJBR
TAF
KJBR 282322Z 2900/2924 16003KT P6SM FEW250
     FM291600 18007KT P6SM SCT040=



000
FTUS44 KMEG 282322
TAFMEM
TAF
KMEM 282322Z 2900/2924 17007KT P6SM SCT050
     FM290100 13005KT P6SM FEW250
     FM291600 18007KT P6SM SCT040=



000
FTUS44 KMEG 282322
TAFMKL
TAF
KMKL 282322Z 2900/2924 16003KT P6SM FEW250
     FM290800 00000KT 5SM BR FEW250
      TEMPO 2909/2912 2SM BR
     FM291600 17007KT P6SM SCT040=



000
FTUS44 KMEG 282322
TAFTUP
TAF
KTUP 282322Z 2900/2924 15003KT P6SM SCT050
     FM291600 18007KT P6SM SCT040=



000
FTUS44 KMEG 282322
TAFJBR
TAF
KJBR 282322Z 2900/2924 16003KT P6SM FEW250
     FM291600 18007KT P6SM SCT040=



000
FTUS44 KMEG 282322
TAFMEM
TAF
KMEM 282322Z 2900/2924 17007KT P6SM SCT050
     FM290100 13005KT P6SM FEW250
     FM291600 18007KT P6SM SCT040=



000
FTUS44 KMEG 282055 AAA
TAFMEM
TAF AMD
KMEM 282055Z 2821/2918 17007KT P6SM SCT050
     FM290100 13005KT P6SM FEW250
     FM291600 18007KT P6SM SCT040=



000
FTUS44 KMEG 282055 AAA
TAFMEM
TAF AMD
KMEM 282055Z 2821/2918 17007KT P6SM SCT050
     FM290100 13005KT P6SM FEW250
     FM291600 18007KT P6SM SCT040=



000
FTUS44 KMEG 281804 AAA
TAFTUP
TAF AMD
KTUP 281804Z 2818/2918 15006KT P6SM SCT050
     FM290100 10003KT P6SM SCT050
      TEMPO 2912/2915 SCT012
     FM291600 18007KT P6SM SCT040=



000
FTUS44 KMEG 281804 AAA
TAFTUP
TAF AMD
KTUP 281804Z 2818/2918 15006KT P6SM SCT050
     FM290100 10003KT P6SM SCT050
      TEMPO 2912/2915 SCT012
     FM291600 18007KT P6SM SCT040=



000
FTUS44 KMEG 281738
TAFTUP
TAF
KTUP 281738Z 2818/2918 15006KT P6SM SCT050
     FM290100 10003KT P6SM FEW250
     FM291600 18007KT P6SM SCT040=



000
FTUS44 KMEG 281738
TAFMEM
TAF
KMEM 281738Z 2818/2918 15007KT P6SM SCT050
     FM290100 13005KT P6SM FEW250
     FM291600 18007KT P6SM SCT040=



000
FTUS44 KMEG 281738
TAFMKL
TAF
KMKL 281738Z 2818/2918 17005KT P6SM SCT050
     FM290100 00000KT P6SM FEW250
     FM290800 00000KT 5SM BR FEW250
      TEMPO 2909/2912 2SM BR
     FM291600 17007KT P6SM SCT040=



000
FTUS44 KMEG 281738
TAFJBR
TAF
KJBR 281738Z 2818/2918 15007KT P6SM SCT050
     FM290100 13003KT P6SM FEW250
     FM291600 18007KT P6SM SCT040=



000
FTUS44 KMEG 281738
TAFJBR
TAF
KJBR 281738Z 2818/2918 15007KT P6SM SCT050
     FM290100 13003KT P6SM FEW250
     FM291600 18007KT P6SM SCT040=



000
FTUS44 KMEG 281738
TAFMKL
TAF
KMKL 281738Z 2818/2918 17005KT P6SM SCT050
     FM290100 00000KT P6SM FEW250
     FM290800 00000KT 5SM BR FEW250
      TEMPO 2909/2912 2SM BR
     FM291600 17007KT P6SM SCT040=



000
FTUS44 KMEG 281738
TAFMEM
TAF
KMEM 281738Z 2818/2918 15007KT P6SM SCT050
     FM290100 13005KT P6SM FEW250
     FM291600 18007KT P6SM SCT040=



000
FTUS44 KMEG 281738
TAFTUP
TAF
KTUP 281738Z 2818/2918 15006KT P6SM SCT050
     FM290100 10003KT P6SM FEW250
     FM291600 18007KT P6SM SCT040=



000
FTUS44 KMEG 281458 AAA
TAFMEM
TAF AMD
KMEM 281458Z 2815/2912 08003KT P6SM FEW250
     FM281600 15007KT P6SM SCT050
     FM290100 13005KT P6SM FEW050=



000
FTUS44 KMEG 281458 AAA
TAFMEM
TAF AMD
KMEM 281458Z 2815/2912 08003KT P6SM FEW250
     FM281600 15007KT P6SM SCT050
     FM290100 13005KT P6SM FEW050=



000
FTUS44 KMEG 281211 AAA
TAFMKL
TAF AMD
KMKL 281211Z 2812/2912 00000KT 5SM BR FEW002
      TEMPO 2811/2813 2SM BR
     FM281300 15005KT P6SM SCT050
     FM290100 00000KT P6SM FEW050=



000
FTUS44 KMEG 281211 AAA
TAFMKL
TAF AMD
KMKL 281211Z 2812/2912 00000KT 5SM BR FEW002
      TEMPO 2811/2813 2SM BR
     FM281300 15005KT P6SM SCT050
     FM290100 00000KT P6SM FEW050=



000
FTUS44 KMEG 281120
TAFMKL
TAF
KMKL 281120Z 2812/2912 00000KT 2SM BR FEW060
      TEMPO 2811/2813 1SM BR
     FM281600 15005KT P6SM SCT050
     FM290100 00000KT P6SM FEW050=



000
FTUS44 KMEG 281120
TAFTUP
TAF
KTUP 281120Z 2812/2912 04003KT P6SM FEW060
     FM281600 15006KT P6SM SCT050
     FM290100 10003KT P6SM FEW050=



000
FTUS44 KMEG 281120
TAFJBR
TAF
KJBR 281120Z 2812/2912 04005KT P6SM SKC
     FM281600 16009KT P6SM SCT050
     FM290100 13003KT P6SM FEW050=



000
FTUS44 KMEG 281120
TAFMKL
TAF
KMKL 281120Z 2812/2912 00000KT 2SM BR FEW060
      TEMPO 2811/2813 1SM BR
     FM281600 15005KT P6SM SCT050
     FM290100 00000KT P6SM FEW050=



000
FTUS44 KMEG 281120
TAFTUP
TAF
KTUP 281120Z 2812/2912 04003KT P6SM FEW060
     FM281600 15006KT P6SM SCT050
     FM290100 10003KT P6SM FEW050=



000
FTUS44 KMEG 281120
TAFMEM
TAF
KMEM 281120Z 2812/2912 00000KT P6SM FEW250
     FM281600 16007KT P6SM SCT050
     FM290100 13005KT P6SM FEW050=



000
FTUS44 KMEG 281120
TAFJBR
TAF
KJBR 281120Z 2812/2912 04005KT P6SM SKC
     FM281600 16009KT P6SM SCT050
     FM290100 13003KT P6SM FEW050=



000
FTUS44 KMEG 281120
TAFMEM
TAF
KMEM 281120Z 2812/2912 00000KT P6SM FEW250
     FM281600 16007KT P6SM SCT050
     FM290100 13005KT P6SM FEW050=



000
FTUS44 KMEG 280858 AAA
TAFMEM
TAF AMD
KMEM 280858Z 2809/2906 07003KT P6SM FEW250
     FM281600 16007KT P6SM SCT050
     FM290100 13005KT P6SM FEW050=



000
FTUS44 KMEG 280613 AAA
TAFMKL
TAF AMD
KMKL 280613Z 2806/2906 00000KT 1 1/2SM BR SKC
      TEMPO 2808/2812 1/2SM FG
     FM281600 15005KT P6SM SCT050
     FM290100 00000KT P6SM FEW050=



000
FTUS44 KMEG 280613 AAA
TAFMKL
TAF AMD
KMKL 280613Z 2806/2906 00000KT 1 1/2SM BR SKC
      TEMPO 2808/2812 1/2SM FG
     FM281600 15005KT P6SM SCT050
     FM290100 00000KT P6SM FEW050=



000
FTUS44 KMEG 280522
TAFJBR
TAF
KJBR 280522Z 2806/2906 04003KT P6SM SKC
     FM281600 16009KT P6SM SCT050
     FM290100 13003KT P6SM FEW050=



000
FTUS44 KMEG 280522
TAFMKL
TAF
KMKL 280522Z 2806/2906 00000KT 6SM BR SKC
      TEMPO 2808/2812 1SM BR
     FM281600 15005KT P6SM SCT050
     FM290100 00000KT P6SM FEW050=



000
FTUS44 KMEG 280522
TAFMEM
TAF
KMEM 280522Z 2806/2906 07003KT P6SM FEW250
     FM281600 16007KT P6SM SCT050
     FM290100 13005KT P6SM FEW050=



000
FTUS44 KMEG 280522
TAFTUP
TAF
KTUP 280522Z 2806/2906 04003KT P6SM SKC
     FM281600 15006KT P6SM SCT050
     FM290100 10003KT P6SM FEW050=



000
FTUS44 KMEG 280522
TAFMKL
TAF
KMKL 280522Z 2806/2906 00000KT 6SM BR SKC
      TEMPO 2808/2812 1SM BR
     FM281600 15005KT P6SM SCT050
     FM290100 00000KT P6SM FEW050=



000
FTUS44 KMEG 280522
TAFTUP
TAF
KTUP 280522Z 2806/2906 04003KT P6SM SKC
     FM281600 15006KT P6SM SCT050
     FM290100 10003KT P6SM FEW050=



000
FTUS44 KMEG 280522
TAFJBR
TAF
KJBR 280522Z 2806/2906 04003KT P6SM SKC
     FM281600 16009KT P6SM SCT050
     FM290100 13003KT P6SM FEW050=



000
FTUS44 KMEG 280522
TAFMEM
TAF
KMEM 280522Z 2806/2906 07003KT P6SM FEW250
     FM281600 16007KT P6SM SCT050
     FM290100 13005KT P6SM FEW050=



000
FTUS44 KMEG 280259 AAA
TAFMEM
TAF AMD
KMEM 280259Z 2803/2824 07003KT P6SM FEW250
     FM281600 16007KT P6SM SCT050=



000
FTUS44 KMEG 272320
TAFMKL
TAF
KMKL 272320Z 2800/2824 04007KT P6SM FEW050
     FM280100 00000KT P6SM SKC
     FM281600 15005KT P6SM SCT050=



000
FTUS44 KMEG 272320
TAFMKL
TAF
KMKL 272320Z 2800/2824 04007KT P6SM FEW050
     FM280100 00000KT P6SM SKC
     FM281600 15005KT P6SM SCT050=



000
FTUS44 KMEG 272320
TAFJBR
TAF
KJBR 272320Z 2800/2824 08007KT P6SM FEW050
     FM280100 04003KT P6SM SKC
     FM281600 16009KT P6SM SCT050=



000
FTUS44 KMEG 272320
TAFMEM
TAF
KMEM 272320Z 2800/2824 02009KT P6SM FEW060
     FM280100 06005KT P6SM SKC
     FM281600 16007KT P6SM SCT050=



000
FTUS44 KMEG 272320
TAFTUP
TAF
KTUP 272320Z 2800/2824 04008KT P6SM FEW050
     FM280100 04003KT P6SM SKC
     FM281600 15006KT P6SM SCT050=



000
FTUS44 KMEG 272320
TAFMEM
TAF
KMEM 272320Z 2800/2824 02009KT P6SM FEW060
     FM280100 06005KT P6SM SKC
     FM281600 16007KT P6SM SCT050=



000
FTUS44 KMEG 272320
TAFJBR
TAF
KJBR 272320Z 2800/2824 08007KT P6SM FEW050
     FM280100 04003KT P6SM SKC
     FM281600 16009KT P6SM SCT050=



000
FTUS44 KMEG 272320
TAFTUP
TAF
KTUP 272320Z 2800/2824 04008KT P6SM FEW050
     FM280100 04003KT P6SM SKC
     FM281600 15006KT P6SM SCT050=



    US Dept of Commerce
    National Oceanic and Atmospheric Administration
    National Weather Service
    1325 East West Highway
    Silver Spring, MD 20910
    Page Author: NWS Internet Services Team
Disclaimer
Information Quality
Credits
Glossary
Privacy Policy
Freedom of Information Act (FOIA)
About Us
Career Opportunities